createdAt,value
2019-01-02T17:21:54.676Z,1.60
2019-01-02T17:24:23.854Z,2.00
2019-01-02T17:26:52.048Z,2.50
2019-01-02T17:29:22.244Z,3.00
2019-01-02T17:31:50.709Z,3.30
2019-01-02T17:34:21.587Z,3.50
2019-01-02T17:36:49.737Z,3.50
2019-01-02T17:39:19.162Z,3.40
2019-01-02T17:41:48.431Z,3.30
2019-01-02T17:44:18.663Z,3.40
2019-01-02T17:46:49.908Z,3.20
2019-01-02T17:49:21.928Z,3.20
2019-01-02T17:51:51.086Z,3.20
2019-01-02T17:54:24.691Z,3.30
2019-01-02T17:56:53.228Z,3.50
2019-01-02T17:59:21.459Z,3.60
2019-01-02T18:01:49.588Z,3.50
2019-01-02T18:04:21.375Z,3.20
2019-01-02T18:06:55.758Z,3.10
2019-01-02T18:09:24.026Z,2.90
2019-01-02T18:11:56.599Z,3.60
2019-01-02T18:14:24.968Z,4.00
2019-01-02T18:16:57.640Z,4.00
2019-01-02T18:19:31.610Z,3.60
2019-01-02T18:21:59.771Z,3.50
2019-01-02T18:24:27.949Z,3.60
2019-01-02T18:26:56.098Z,3.70
2019-01-02T18:29:24.315Z,3.60
2019-01-02T18:31:52.778Z,3.50
2019-01-02T18:34:23.043Z,3.30
2019-01-02T18:36:51.250Z,3.30
2019-01-02T18:39:19.491Z,3.50
2019-01-02T18:41:48.008Z,3.30
2019-01-02T18:44:22.060Z,3.20
2019-01-02T18:46:50.565Z,3.30
2019-01-02T18:49:21.848Z,3.20
2019-01-02T18:51:59.047Z,3.00
2019-01-02T18:54:27.271Z,2.90
2019-01-02T18:56:55.493Z,2.90
2019-01-02T18:59:23.656Z,3.00
2019-01-02T19:01:51.852Z,3.00
2019-01-02T19:04:20.057Z,2.90
2019-01-02T19:06:48.181Z,2.90
2019-01-02T19:09:16.403Z,2.80
2019-01-02T19:11:45.598Z,2.80
2019-01-02T19:14:13.753Z,2.90
2019-01-02T19:16:41.904Z,3.00
2019-01-02T19:19:10.076Z,2.90
2019-01-02T19:21:40.305Z,2.90
2019-01-02T19:24:08.447Z,2.90
2019-01-02T19:26:37.688Z,2.90
2019-01-02T19:29:06.255Z,3.10
2019-01-02T19:31:36.808Z,3.20
2019-01-02T19:34:05.963Z,3.10
2019-01-02T19:36:34.692Z,2.80
2019-01-02T19:39:02.844Z,2.90
2019-01-02T19:41:32.292Z,3.10
2019-01-02T19:44:00.509Z,3.00
2019-01-02T19:46:29.970Z,2.90
2019-01-02T19:48:58.886Z,2.80
2019-01-02T19:51:27.120Z,2.80
2019-01-02T19:53:55.283Z,2.70
2019-01-02T19:56:23.651Z,2.70
2019-01-02T19:58:55.185Z,2.70
2019-01-02T20:01:25.716Z,2.90
2019-01-02T20:03:56.032Z,2.90
2019-01-02T20:06:24.202Z,2.90
2019-01-02T20:08:53.496Z,2.90
2019-01-02T20:11:27.578Z,2.90
2019-01-02T20:13:56.104Z,3.00
2019-01-02T20:16:24.266Z,3.10
2019-01-02T20:18:54.702Z,3.30
2019-01-02T20:21:24.165Z,3.30
2019-01-02T20:23:53.305Z,3.30
2019-01-02T20:26:21.428Z,3.20
2019-01-02T20:28:50.663Z,3.20
2019-01-02T20:31:18.850Z,3.00
2019-01-02T20:33:47.074Z,2.70
2019-01-02T20:36:15.379Z,2.50
2019-01-02T20:38:43.612Z,2.60
2019-01-02T20:41:12.795Z,2.70
2019-01-02T20:43:40.951Z,3.00
2019-01-02T20:46:10.406Z,3.00
2019-01-02T20:48:38.604Z,3.00
2019-01-02T20:51:12.857Z,3.00
2019-01-02T20:53:40.973Z,3.00
2019-01-02T20:56:09.199Z,3.10
2019-01-02T20:58:39.408Z,3.20
2019-01-02T21:01:18.025Z,2.90
2019-01-02T21:03:49.241Z,3.00
2019-01-02T21:06:23.486Z,3.10
2019-01-02T21:08:53.704Z,3.00
2019-01-02T21:11:21.894Z,3.00
2019-01-02T21:13:57.153Z,3.00
2019-01-02T21:16:26.301Z,3.00
2019-01-02T21:18:54.471Z,2.80
2019-01-02T21:21:23.684Z,2.90
2019-01-02T21:23:52.099Z,3.00
2019-01-02T21:26:20.322Z,2.80
2019-01-02T21:28:53.205Z,2.80
2019-01-02T21:31:21.448Z,2.80
2019-01-02T21:33:49.701Z,2.70
2019-01-02T21:36:18.408Z,2.60
2019-01-02T21:38:46.634Z,2.50
2019-01-02T21:41:14.812Z,2.20
2019-01-02T21:43:42.978Z,2.10
2019-01-02T21:46:22.932Z,2.30
2019-01-02T21:48:51.094Z,2.20
2019-01-02T21:51:19.265Z,2.20
2019-01-02T21:53:47.451Z,2.30
2019-01-02T21:56:15.643Z,2.30
2019-01-02T21:58:44.038Z,2.50
2019-01-02T22:01:12.163Z,2.50
2019-01-02T22:03:40.679Z,2.50
2019-01-02T22:06:10.871Z,2.60
2019-01-02T22:08:39.044Z,2.70
2019-01-02T22:11:07.221Z,2.80
2019-01-02T22:13:35.422Z,2.70
2019-01-02T22:16:03.562Z,2.60
2019-01-02T22:18:31.740Z,2.50
2019-01-02T22:20:59.912Z,2.50
2019-01-02T22:23:35.261Z,2.40
2019-01-02T22:26:13.343Z,2.50
2019-01-02T22:28:42.017Z,2.70
2019-01-02T22:31:10.116Z,2.60
2019-01-02T22:33:38.327Z,2.60
2019-01-02T22:36:14.129Z,2.90
2019-01-02T22:38:46.350Z,2.80
2019-01-02T22:41:19.621Z,2.80
2019-01-02T22:43:47.795Z,2.90
2019-01-02T22:46:15.935Z,3.00
2019-01-02T22:48:44.104Z,3.10
2019-01-02T22:51:12.283Z,2.90
2019-01-02T22:53:41.566Z,2.70
2019-01-02T22:56:09.826Z,2.80
2019-01-02T22:58:41.028Z,2.80
2019-01-02T23:01:15.164Z,2.70
2019-01-02T23:03:55.204Z,2.70
2019-01-02T23:06:45.522Z,2.90
2019-01-02T23:09:49.302Z,3.10
2019-01-02T23:12:39.857Z,2.90
2019-01-02T23:15:57.195Z,2.90
2019-01-02T23:18:52.007Z,2.60
2019-01-02T23:21:38.137Z,2.30
2019-01-02T23:24:24.455Z,2.40
2019-01-02T23:27:16.877Z,2.40
2019-01-02T23:30:04.312Z,2.50
2019-01-02T23:32:50.054Z,2.60
2019-01-02T23:35:37.440Z,2.70
2019-01-02T23:38:38.551Z,2.70
2019-01-02T23:41:28.850Z,2.70
2019-01-02T23:44:20.684Z,2.80
2019-01-02T23:47:08.015Z,2.70
2019-01-02T23:50:06.071Z,2.80
2019-01-02T23:52:54.193Z,2.90
2019-01-02T23:55:34.758Z,3.00
2019-01-02T23:58:29.311Z,3.20
